Time;durP1;ratioP1;P1;durP2;ratioP2;P2;SDS_P1;SDS_P2;PMS_P1;PMS_P2;Temp;Humidity;BMP_temperature;BMP_pressure;BME280_temperature;BME280_humidity;BME280_pressure;Samples;Min_cycle;Max_cycle;Signal;HPM_P1;HPM_P2
2020/12/26 00:00:19;;;;;;;12.48;4.85;;;;;;;;;;4944933;29;20070;-61
2020/12/26 00:02:47;;;;;;;10.02;4.13;;;;;;;;;;4945078;29;20058;-62
2020/12/26 00:05:13;;;;;;;9.95;4.03;;;;;;;;;;4946624;29;20135;-61
2020/12/26 00:07:39;;;;;;;9.75;3.97;;;;;;;;;;4943042;29;20854;-61
2020/12/26 00:10:05;;;;;;;8.82;3.85;;;;;;;;;;4945498;29;20452;-63
2020/12/26 00:12:33;;;;;;;9.45;3.92;;;;;;;;;;4945004;29;20043;-59
2020/12/26 00:14:59;;;;;;;7.88;3.70;;;;;;;;;;4946938;29;20044;-59
2020/12/26 00:17:25;;;;;;;9.80;3.80;;;;;;;;;;4944647;29;20075;-61
2020/12/26 00:19:51;;;;;;;10.90;3.53;;;;;;;;;;4944328;29;20507;-60
2020/12/26 00:22:17;;;;;;;13.52;4.22;;;;;;;;;;4946804;29;20048;-60
2020/12/26 00:24:43;;;;;;;11.40;3.58;;;;;;;;;;4948114;29;20054;-59
2020/12/26 00:27:09;;;;;;;10.15;4.65;;;;;;;;;;4943690;29;20039;-60
2020/12/26 00:29:34;;;;;;;9.48;4.22;;;;;;;;;;4945133;29;20047;-60
2020/12/26 00:32:00;;;;;;;11.07;4.57;;;;;;;;;;4944805;29;20040;-60
2020/12/26 00:34:26;;;;;;;15.45;4.78;;;;;;;;;;4947042;29;20043;-60
2020/12/26 00:36:52;;;;;;;8.65;4.40;;;;;;;;;;4944316;29;20044;-60
2020/12/26 00:39:19;;;;;;;9.95;4.25;;;;;;;;;;4943181;29;20535;-60
2020/12/26 00:41:45;;;;;;;13.52;4.45;;;;;;;;;;4936079;29;20165;-59
2020/12/26 00:44:11;;;;;;;8.50;4.22;;;;;;;;;;4944349;29;20047;-60
2020/12/26 00:46:37;;;;;;;10.30;4.13;;;;;;;;;;4944016;29;20526;-59
2020/12/26 00:49:03;;;;;;;9.27;3.80;;;;;;;;;;4945649;29;20055;-60
2020/12/26 00:51:29;;;;;;;9.00;3.45;;;;;;;;;;4944526;29;20046;-60
2020/12/26 00:53:55;;;;;;;14.13;4.30;;;;;;;;;;4938287;29;20138;-61
2020/12/26 00:56:20;;;;;;;12.60;4.20;;;;;;;;;;4926626;29;20111;-61
2020/12/26 00:58:46;;;;;;;11.10;4.22;;;;;;;;;;4943354;29;20122;-61
2020/12/26 01:01:14;;;;;;;10.75;3.90;;;;;;;;;;4946436;29;20058;-60
2020/12/26 01:03:40;;;;;;;9.13;3.92;;;;;;;;;;4944419;29;20107;-61
2020/12/26 01:06:11;;;;;;;13.48;4.50;;;;;;;;;;4944983;29;20061;-61
2020/12/26 01:08:37;;;;;;;10.93;4.60;;;;;;;;;;4944461;29;20067;-61
2020/12/26 01:11:03;;;;;;;11.55;4.53;;;;;;;;;;4944410;29;20043;-61
2020/12/26 01:13:29;;;;;;;10.77;5.15;;;;;;;;;;4944073;29;20072;-61
2020/12/26 01:15:56;;;;;;;13.02;5.45;;;;;;;;;;4944231;29;20039;-61
2020/12/26 01:18:22;;;;;;;10.23;4.55;;;;;;;;;;4943878;29;20047;-61
2020/12/26 01:20:48;;;;;;;14.70;4.53;;;;;;;;;;4945783;29;20046;-62
2020/12/26 01:23:14;;;;;;;12.20;4.32;;;;;;;;;;4944388;29;20054;-61
2020/12/26 01:25:39;;;;;;;11.65;4.32;;;;;;;;;;4944326;29;20038;-61
2020/12/26 01:28:05;;;;;;;10.55;4.50;;;;;;;;;;4945836;29;20106;-62
2020/12/26 01:30:31;;;;;;;11.25;4.53;;;;;;;;;;4945085;29;20036;-64
2020/12/26 01:32:57;;;;;;;10.95;5.13;;;;;;;;;;4943604;29;20103;-60
2020/12/26 01:35:23;;;;;;;13.63;4.68;;;;;;;;;;4941497;29;20039;-60
2020/12/26 01:37:49;;;;;;;17.35;6.50;;;;;;;;;;4944491;29;20115;-60
2020/12/26 01:40:14;;;;;;;24.75;8.32;;;;;;;;;;4944451;29;20048;-60
2020/12/26 01:42:40;;;;;;;18.55;6.03;;;;;;;;;;4942653;29;20055;-61
2020/12/26 01:45:06;;;;;;;12.00;5.22;;;;;;;;;;4943765;29;20039;-61
2020/12/26 01:47:32;;;;;;;16.20;5.70;;;;;;;;;;4926715;29;20063;-62
2020/12/26 01:49:59;;;;;;;23.58;6.53;;;;;;;;;;4944290;29;20039;-60
2020/12/26 01:52:25;;;;;;;17.98;6.20;;;;;;;;;;4941290;29;20102;-62
2020/12/26 01:54:52;;;;;;;17.17;6.07;;;;;;;;;;4942995;28;20062;-62
2020/12/26 01:57:18;;;;;;;25.08;6.72;;;;;;;;;;4943484;29;20171;-62
2020/12/26 01:59:44;;;;;;;20.48;6.07;;;;;;;;;;4942595;29;20062;-61
2020/12/26 02:02:10;;;;;;;18.52;6.70;;;;;;;;;;4927895;29;20051;-60
2020/12/26 02:04:36;;;;;;;23.35;5.93;;;;;;;;;;4943088;29;20188;-60
2020/12/26 02:07:04;;;;;;;21.35;6.30;;;;;;;;;;4942586;29;20048;-62
2020/12/26 02:09:30;;;;;;;17.98;6.80;;;;;;;;;;4940859;29;20039;-60
2020/12/26 02:11:56;;;;;;;17.63;6.38;;;;;;;;;;4943773;29;20047;-60
2020/12/26 02:14:22;;;;;;;18.77;6.55;;;;;;;;;;4944412;29;20171;-61
2020/12/26 02:16:53;;;;;;;14.32;6.05;;;;;;;;;;4944664;29;20050;-61
2020/12/26 02:19:20;;;;;;;14.48;5.68;;;;;;;;;;4942605;29;20487;-61
2020/12/26 02:21:46;;;;;;;23.88;6.60;;;;;;;;;;4944123;29;20035;-61
2020/12/26 02:24:12;;;;;;;16.17;5.85;;;;;;;;;;4942816;29;20044;-61
2020/12/26 02:26:38;;;;;;;13.65;5.20;;;;;;;;;;4942837;29;20054;-61
2020/12/26 02:29:05;;;;;;;15.80;7.95;;;;;;;;;;4944734;29;20146;-60
2020/12/26 02:31:31;;;;;;;17.92;7.57;;;;;;;;;;4943508;29;20050;-61
2020/12/26 02:33:57;;;;;;;20.13;6.75;;;;;;;;;;4942252;29;20573;-59
2020/12/26 02:36:23;;;;;;;19.02;7.00;;;;;;;;;;4942121;29;20126;-61
2020/12/26 02:38:49;;;;;;;24.25;8.35;;;;;;;;;;4942406;29;20102;-61
2020/12/26 02:41:15;;;;;;;18.08;7.30;;;;;;;;;;4945151;29;20043;-61
2020/12/26 02:43:41;;;;;;;12.68;5.68;;;;;;;;;;4941980;29;20047;-61
2020/12/26 02:46:07;;;;;;;15.23;5.25;;;;;;;;;;4942028;29;20051;-60
2020/12/26 02:48:33;;;;;;;14.80;5.47;;;;;;;;;;4941938;29;20066;-61
2020/12/26 02:50:59;;;;;;;16.83;5.78;;;;;;;;;;4945736;28;20035;-62
2020/12/26 02:53:25;;;;;;;15.98;5.50;;;;;;;;;;4942823;29;20054;-61
2020/12/26 02:55:51;;;;;;;19.63;6.07;;;;;;;;;;4943501;29;20054;-61
2020/12/26 02:58:17;;;;;;;12.90;5.43;;;;;;;;;;4942398;29;20063;-61
2020/12/26 03:00:43;;;;;;;17.27;5.53;;;;;;;;;;4943574;29;20058;-61
2020/12/26 03:03:09;;;;;;;12.80;5.45;;;;;;;;;;4945266;29;20047;-61
2020/12/26 03:05:35;;;;;;;10.85;5.28;;;;;;;;;;4940410;28;20051;-62
2020/12/26 03:08:01;;;;;;;18.48;6.00;;;;;;;;;;4945653;29;20082;-60
2020/12/26 03:10:27;;;;;;;17.90;6.10;;;;;;;;;;4948727;29;20038;-61
2020/12/26 03:12:53;;;;;;;17.02;6.28;;;;;;;;;;4945235;29;20047;-61
2020/12/26 03:15:19;;;;;;;14.63;5.88;;;;;;;;;;4945315;29;20079;-60
2020/12/26 03:17:45;;;;;;;13.43;5.97;;;;;;;;;;4945993;29;20102;-61
2020/12/26 03:20:11;;;;;;;12.55;6.07;;;;;;;;;;4948029;29;20039;-59
2020/12/26 03:22:36;;;;;;;8.10;3.65;;;;;;;;;;4945438;29;20047;-60
2020/12/26 03:25:02;;;;;;;10.20;3.92;;;;;;;;;;4946642;28;20100;-63
2020/12/26 03:27:28;;;;;;;6.05;2.42;;;;;;;;;;4945643;29;20043;-62
2020/12/26 03:29:54;;;;;;;11.85;2.28;;;;;;;;;;4947325;29;20410;-60
2020/12/26 03:32:21;;;;;;;6.45;3.42;;;;;;;;;;4947077;29;20142;-61
2020/12/26 03:34:47;;;;;;;6.82;2.00;;;;;;;;;;4946107;28;20038;-61
2020/12/26 03:37:13;;;;;;;8.13;2.40;;;;;;;;;;4947452;29;20031;-61
2020/12/26 03:39:39;;;;;;;4.75;2.03;;;;;;;;;;4944927;29;20070;-61
2020/12/26 03:42:24;;;;;;;4.90;1.42;;;;;;;;;;4925322;29;20270;-61
2020/12/26 03:44:50;;;;;;;3.28;1.30;;;;;;;;;;4924678;29;20104;-61
2020/12/26 03:47:16;;;;;;;5.38;1.42;;;;;;;;;;4926406;29;20041;-62
2020/12/26 03:49:42;;;;;;;3.85;1.33;;;;;;;;;;4924240;29;20155;-62
2020/12/26 03:52:08;;;;;;;4.57;1.55;;;;;;;;;;4927208;29;20040;-62
2020/12/26 03:54:34;;;;;;;2.58;0.82;;;;;;;;;;4909118;29;20147;-62
2020/12/26 03:56:59;;;;;;;3.30;1.20;;;;;;;;;;4926508;29;20040;-62
2020/12/26 03:59:25;;;;;;;4.13;1.10;;;;;;;;;;4924634;29;20112;-61
2020/12/26 04:01:51;;;;;;;3.95;1.00;;;;;;;;;;4927491;29;20045;-63
2020/12/26 04:04:17;;;;;;;3.58;1.30;;;;;;;;;;4924610;29;20084;-61
2020/12/26 04:06:43;;;;;;;3.83;1.38;;;;;;;;;;4925970;29;20039;-60
2020/12/26 04:09:09;;;;;;;2.97;1.20;;;;;;;;;;4926330;29;20042;-61
2020/12/26 04:11:35;;;;;;;7.22;1.42;;;;;;;;;;4925320;29;20044;-60
2020/12/26 04:14:02;;;;;;;6.65;1.80;;;;;;;;;;4924319;29;20749;-61
2020/12/26 04:16:27;;;;;;;4.45;1.70;;;;;;;;;;4924339;29;20115;-61
2020/12/26 04:18:53;;;;;;;6.40;2.00;;;;;;;;;;4926447;29;20071;-60
2020/12/26 04:21:22;;;;;;;4.43;1.73;;;;;;;;;;4945834;29;20039;-60
2020/12/26 04:23:49;;;;;;;4.68;2.05;;;;;;;;;;4943505;29;20079;-57
2020/12/26 04:26:15;;;;;;;4.55;2.03;;;;;;;;;;4945524;29;20066;-59
2020/12/26 04:28:40;;;;;;;5.90;2.30;;;;;;;;;;4936525;29;20035;-60
2020/12/26 04:31:06;;;;;;;3.85;1.80;;;;;;;;;;4944501;29;20062;-61
2020/12/26 04:33:32;;;;;;;5.57;3.00;;;;;;;;;;4944514;28;20160;-62
2020/12/26 04:35:58;;;;;;;7.40;3.08;;;;;;;;;;4943649;29;20121;-61
2020/12/26 04:38:24;;;;;;;7.20;2.75;;;;;;;;;;4943219;29;20055;-61
2020/12/26 04:40:50;;;;;;;9.55;2.92;;;;;;;;;;4944430;29;20046;-60
2020/12/26 04:43:16;;;;;;;5.45;2.60;;;;;;;;;;4943897;28;20060;-61
2020/12/26 04:45:43;;;;;;;5.60;2.22;;;;;;;;;;4945123;28;20066;-60
2020/12/26 04:48:12;;;;;;;5.50;2.47;;;;;;;;;;4945406;29;20060;-59
2020/12/26 04:50:41;;;;;;;6.28;2.90;;;;;;;;;;4944709;28;20050;-61
2020/12/26 04:53:08;;;;;;;4.50;2.50;;;;;;;;;;4941960;29;20047;-61
2020/12/26 04:55:34;;;;;;;6.70;3.42;;;;;;;;;;4945653;29;20035;-61
2020/12/26 04:58:06;;;;;;;7.75;2.88;;;;;;;;;;4943796;29;20054;-61
2020/12/26 05:00:33;;;;;;;6.53;3.47;;;;;;;;;;4928246;29;20039;-61
2020/12/26 05:03:06;;;;;;;8.00;4.25;;;;;;;;;;4945424;29;20067;-61
2020/12/26 05:05:39;;;;;;;7.22;4.15;;;;;;;;;;4944559;29;20134;-61
2020/12/26 05:08:08;;;;;;;7.38;4.07;;;;;;;;;;4945203;29;20040;-61
2020/12/26 05:10:35;;;;;;;10.60;4.45;;;;;;;;;;4943581;29;20039;-60
2020/12/26 05:13:01;;;;;;;14.18;5.72;;;;;;;;;;4944779;29;20040;-62
2020/12/26 05:15:27;;;;;;;6.10;2.50;;;;;;;;;;4944513;29;20039;-61
2020/12/26 05:17:53;;;;;;;6.15;3.42;;;;;;;;;;4945739;29;20502;-60
2020/12/26 05:20:21;;;;;;;9.80;3.40;;;;;;;;;;4943001;29;20099;-59
2020/12/26 05:22:47;;;;;;;6.30;3.35;;;;;;;;;;4943478;29;20512;-60
2020/12/26 05:25:14;;;;;;;5.35;2.70;;;;;;;;;;4943337;28;20047;-60
2020/12/26 05:27:40;;;;;;;5.97;2.90;;;;;;;;;;4942688;29;20078;-60
2020/12/26 05:30:06;;;;;;;6.07;3.55;;;;;;;;;;4943906;29;20031;-62
2020/12/26 05:32:33;;;;;;;5.82;3.53;;;;;;;;;;4943563;29;20047;-62
2020/12/26 05:35:03;;;;;;;6.80;3.45;;;;;;;;;;4943293;29;20035;-61
2020/12/26 05:37:30;;;;;;;5.90;3.53;;;;;;;;;;4943042;29;20065;-62
2020/12/26 05:39:57;;;;;;;6.97;3.10;;;;;;;;;;4947535;28;20050;-61
2020/12/26 05:42:23;;;;;;;7.13;4.25;;;;;;;;;;4943236;29;20049;-61
2020/12/26 05:44:49;;;;;;;8.10;3.75;;;;;;;;;;4944940;29;20043;-60
2020/12/26 05:47:15;;;;;;;6.32;3.78;;;;;;;;;;4944483;29;20075;-60
2020/12/26 05:49:41;;;;;;;5.78;2.88;;;;;;;;;;4942929;29;20055;-61
2020/12/26 05:52:11;;;;;;;7.45;3.72;;;;;;;;;;4944432;29;20063;-61
2020/12/26 05:54:37;;;;;;;7.07;3.17;;;;;;;;;;4942387;28;20093;-60
2020/12/26 05:57:04;;;;;;;6.60;3.92;;;;;;;;;;4942796;29;20055;-61
2020/12/26 05:59:30;;;;;;;6.88;3.83;;;;;;;;;;4943036;29;20046;-61
2020/12/26 06:01:56;;;;;;;8.73;3.95;;;;;;;;;;4943231;29;20048;-61
2020/12/26 06:04:22;;;;;;;6.90;3.90;;;;;;;;;;4943449;29;20166;-60
2020/12/26 06:06:52;;;;;;;6.60;3.25;;;;;;;;;;4943968;29;20468;-60
2020/12/26 06:09:21;;;;;;;5.30;2.95;;;;;;;;;;4943159;29;20819;-60
2020/12/26 06:11:48;;;;;;;5.10;3.15;;;;;;;;;;4928971;29;20050;-60
2020/12/26 06:14:17;;;;;;;7.53;4.30;;;;;;;;;;4943450;28;20507;-60
2020/12/26 06:16:48;;;;;;;7.18;4.57;;;;;;;;;;4942718;29;20043;-60
2020/12/26 06:19:14;;;;;;;9.10;4.63;;;;;;;;;;4942749;29;20039;-59
2020/12/26 06:21:40;;;;;;;7.53;5.10;;;;;;;;;;4933554;29;20044;-61
2020/12/26 06:24:06;;;;;;;5.65;3.13;;;;;;;;;;4943249;29;20055;-60
2020/12/26 06:26:35;;;;;;;8.50;5.32;;;;;;;;;;4926570;29;20153;-60
2020/12/26 06:29:03;;;;;;;9.30;5.20;;;;;;;;;;4942277;28;20066;-60
2020/12/26 06:31:29;;;;;;;7.88;4.78;;;;;;;;;;4940450;29;20526;-59
2020/12/26 06:33:55;;;;;;;8.63;5.07;;;;;;;;;;4944187;29;20610;-59
2020/12/26 06:36:21;;;;;;;8.75;5.03;;;;;;;;;;4942621;29;20046;-59
2020/12/26 06:38:47;;;;;;;6.07;3.35;;;;;;;;;;4926103;29;20040;-59
2020/12/26 06:41:19;;;;;;;9.02;4.57;;;;;;;;;;4944953;29;20058;-59
2020/12/26 06:43:45;;;;;;;7.57;4.50;;;;;;;;;;4946563;29;20070;-59
2020/12/26 06:46:13;;;;;;;7.82;4.32;;;;;;;;;;4948901;29;20064;-59
2020/12/26 06:48:40;;;;;;;8.15;4.43;;;;;;;;;;4946581;29;20051;-59
2020/12/26 06:51:24;;;;;;;7.55;3.78;;;;;;;;;;4949113;29;20170;-59
2020/12/26 06:53:50;;;;;;;6.97;3.63;;;;;;;;;;4946565;29;20776;-60
2020/12/26 06:56:32;;;;;;;5.63;3.42;;;;;;;;;;4945831;29;20039;-60
2020/12/26 06:58:58;;;;;;;6.88;4.32;;;;;;;;;;4947163;29;20043;-61
2020/12/26 07:01:24;;;;;;;5.95;3.50;;;;;;;;;;4947591;29;20144;-61
2020/12/26 07:04:13;;;;;;;7.38;3.97;;;;;;;;;;4946368;29;20055;-60
2020/12/26 07:06:40;;;;;;;5.80;2.78;;;;;;;;;;4934939;28;20047;-59
2020/12/26 07:09:07;;;;;;;8.52;4.25;;;;;;;;;;4930992;29;20279;-59
2020/12/26 07:11:41;;;;;;;8.55;5.10;;;;;;;;;;4948878;28;20039;-60
2020/12/26 07:14:07;;;;;;;7.25;4.47;;;;;;;;;;4948581;29;20047;-59
2020/12/26 07:16:33;;;;;;;7.07;4.25;;;;;;;;;;4947345;29;20028;-59
2020/12/26 07:19:19;;;;;;;9.02;4.30;;;;;;;;;;4944395;29;20035;-60
2020/12/26 07:21:45;;;;;;;8.40;5.20;;;;;;;;;;4946558;29;20090;-60
2020/12/26 07:24:31;;;;;;;7.38;4.53;;;;;;;;;;4947699;29;20052;-59
2020/12/26 07:27:17;;;;;;;8.82;4.38;;;;;;;;;;4945238;29;20042;-59
2020/12/26 07:30:12;;;;;;;8.00;4.70;;;;;;;;;;4937250;29;20055;-60
2020/12/26 07:32:41;;;;;;;7.28;4.53;;;;;;;;;;4930580;28;20035;-60
2020/12/26 07:35:14;;;;;;;6.00;4.32;;;;;;;;;;4945542;29;20107;-60
2020/12/26 07:37:43;;;;;;;7.30;4.78;;;;;;;;;;4945574;28;20050;-59
2020/12/26 07:40:09;;;;;;;7.68;4.82;;;;;;;;;;4946658;29;20499;-59
2020/12/26 07:42:35;;;;;;;8.80;4.90;;;;;;;;;;4944515;28;20052;-60
2020/12/26 07:45:21;;;;;;;9.13;4.78;;;;;;;;;;4946154;29;20039;-60
2020/12/26 07:47:47;;;;;;;9.00;5.10;;;;;;;;;;4952751;28;20573;-58
2020/12/26 07:50:14;;;;;;;7.72;4.20;;;;;;;;;;4951327;29;20047;-59
2020/12/26 07:52:54;;;;;;;6.07;3.63;;;;;;;;;;4944332;29;20040;-60
2020/12/26 07:55:20;;;;;;;7.72;4.18;;;;;;;;;;4943515;29;20044;-60
2020/12/26 07:57:46;;;;;;;7.50;4.18;;;;;;;;;;4945766;29;20051;-61
2020/12/26 08:00:32;;;;;;;6.15;3.88;;;;;;;;;;4946070;29;20123;-61
2020/12/26 08:02:59;;;;;;;5.40;2.75;;;;;;;;;;4946408;29;20050;-60
2020/12/26 08:05:29;;;;;;;6.68;3.67;;;;;;;;;;4944947;29;20058;-60
2020/12/26 08:07:55;;;;;;;6.07;4.10;;;;;;;;;;4947320;29;20078;-57
2020/12/26 08:10:22;;;;;;;10.23;5.68;;;;;;;;;;4943978;29;20046;-60
2020/12/26 08:12:48;;;;;;;9.40;4.88;;;;;;;;;;4946744;29;20091;-60
2020/12/26 08:15:18;;;;;;;6.93;3.70;;;;;;;;;;4946287;29;20130;-60
2020/12/26 08:17:45;;;;;;;6.97;4.25;;;;;;;;;;4928743;29;20042;-60
2020/12/26 08:20:13;;;;;;;8.23;5.35;;;;;;;;;;4945201;29;20035;-60
2020/12/26 08:22:41;;;;;;;9.18;5.80;;;;;;;;;;4943472;28;20476;-60
2020/12/26 08:25:08;;;;;;;9.10;5.82;;;;;;;;;;4946640;29;20035;-60
2020/12/26 08:27:34;;;;;;;7.93;4.82;;;;;;;;;;4946834;29;20093;-60
2020/12/26 08:30:01;;;;;;;8.02;5.05;;;;;;;;;;4944069;29;20073;-61
2020/12/26 08:32:31;;;;;;;9.35;6.03;;;;;;;;;;4943921;29;20071;-60
2020/12/26 08:35:00;;;;;;;7.93;5.22;;;;;;;;;;4945308;29;20166;-60
2020/12/26 08:37:30;;;;;;;10.00;5.38;;;;;;;;;;4943546;28;20043;-60
2020/12/26 08:39:58;;;;;;;8.00;5.65;;;;;;;;;;4927895;29;20043;-60
2020/12/26 08:42:24;;;;;;;6.90;4.30;;;;;;;;;;4942424;28;20071;-60
2020/12/26 08:44:50;;;;;;;8.43;4.35;;;;;;;;;;4944408;29;20746;-61
2020/12/26 08:47:36;;;;;;;8.82;5.05;;;;;;;;;;4945384;28;20058;-60
2020/12/26 08:50:02;;;;;;;9.38;6.45;;;;;;;;;;4944756;29;20457;-61
2020/12/26 08:52:28;;;;;;;7.90;5.60;;;;;;;;;;4944767;28;20035;-60
2020/12/26 08:55:03;;;;;;;8.23;4.95;;;;;;;;;;4943767;29;20590;-60
2020/12/26 08:57:29;;;;;;;8.88;5.28;;;;;;;;;;4943754;28;20044;-60
2020/12/26 09:00:13;;;;;;;18.65;6.65;;;;;;;;;;4946034;29;20472;-59
2020/12/26 09:02:44;;;;;;;11.95;6.63;;;;;;;;;;4945388;28;20070;-61
2020/12/26 09:05:23;;;;;;;11.98;7.40;;;;;;;;;;4943860;29;20049;-60
2020/12/26 09:08:13;;;;;;;11.15;6.50;;;;;;;;;;4944127;28;22226;-60
2020/12/26 09:10:39;;;;;;;10.23;4.40;;;;;;;;;;4944858;29;20039;-59
2020/12/26 09:13:09;;;;;;;7.20;4.32;;;;;;;;;;4943539;29;20043;-60
2020/12/26 09:15:50;;;;;;;9.50;5.50;;;;;;;;;;4942784;29;20315;-60
2020/12/26 09:18:17;;;;;;;7.90;4.40;;;;;;;;;;4946098;29;20054;-60
2020/12/26 09:20:50;;;;;;;11.85;6.22;;;;;;;;;;4944995;29;20576;-60
2020/12/26 09:23:16;;;;;;;9.95;5.80;;;;;;;;;;4945208;28;20051;-61
2020/12/26 09:25:42;;;;;;;12.48;8.07;;;;;;;;;;4943772;29;20441;-60
2020/12/26 09:28:08;;;;;;;10.60;6.88;;;;;;;;;;4944851;28;20032;-61
2020/12/26 09:30:33;;;;;;;14.85;9.20;;;;;;;;;;4944746;29;20048;-61
2020/12/26 09:32:59;;;;;;;12.50;8.45;;;;;;;;;;4929543;29;20142;-60
2020/12/26 09:35:25;;;;;;;13.27;8.80;;;;;;;;;;4943074;29;20036;-61
2020/12/26 09:37:52;;;;;;;7.32;4.53;;;;;;;;;;4944309;29;20047;-62
2020/12/26 09:40:18;;;;;;;12.25;8.13;;;;;;;;;;4945144;29;20039;-62
2020/12/26 09:42:51;;;;;;;12.40;7.65;;;;;;;;;;4943240;29;20156;-61
2020/12/26 09:45:17;;;;;;;9.73;6.15;;;;;;;;;;4925720;29;20476;-61
2020/12/26 09:47:43;;;;;;;13.02;7.10;;;;;;;;;;4928091;29;20042;-61
2020/12/26 09:50:09;;;;;;;12.02;6.90;;;;;;;;;;4943436;29;20042;-62
2020/12/26 09:52:35;;;;;;;13.65;8.05;;;;;;;;;;4941945;28;20036;-62
2020/12/26 09:55:01;;;;;;;11.27;7.22;;;;;;;;;;4944051;29;20039;-62
2020/12/26 09:57:28;;;;;;;12.35;8.48;;;;;;;;;;4944667;28;20059;-62
2020/12/26 09:59:54;;;;;;;12.45;8.23;;;;;;;;;;4944161;29;20192;-62
2020/12/26 10:02:21;;;;;;;8.05;4.18;;;;;;;;;;4943812;29;20138;-61
2020/12/26 10:04:46;;;;;;;10.65;6.90;;;;;;;;;;4943452;29;20063;-60
2020/12/26 10:07:12;;;;;;;11.88;7.70;;;;;;;;;;4944342;28;20045;-60
2020/12/26 10:09:38;;;;;;;10.18;6.45;;;;;;;;;;4942167;29;20042;-60
2020/12/26 10:12:04;;;;;;;11.40;7.22;;;;;;;;;;4942761;29;20047;-60
2020/12/26 10:14:30;;;;;;;12.88;8.32;;;;;;;;;;4942361;29;20836;-61
2020/12/26 10:16:55;;;;;;;12.90;7.72;;;;;;;;;;4946903;28;20050;-60
2020/12/26 10:19:21;;;;;;;12.80;7.63;;;;;;;;;;4946565;29;20059;-61
2020/12/26 10:21:53;;;;;;;11.02;7.45;;;;;;;;;;4948005;29;20142;-61
2020/12/26 10:24:19;;;;;;;13.07;8.75;;;;;;;;;;4946613;29;20052;-60
2020/12/26 10:26:45;;;;;;;7.70;4.18;;;;;;;;;;4949127;29;20106;-61
2020/12/26 10:29:11;;;;;;;8.60;5.13;;;;;;;;;;4946766;29;20039;-60
2020/12/26 10:31:36;;;;;;;10.90;6.45;;;;;;;;;;4946957;29;20043;-61
2020/12/26 10:34:02;;;;;;;9.13;6.25;;;;;;;;;;4946154;28;20099;-61
2020/12/26 10:36:28;;;;;;;9.63;5.68;;;;;;;;;;4946794;29;20039;-60
2020/12/26 10:38:54;;;;;;;11.15;7.10;;;;;;;;;;4947812;29;20132;-61
2020/12/26 10:41:21;;;;;;;13.70;8.63;;;;;;;;;;4948115;29;20028;-60
2020/12/26 10:43:47;;;;;;;12.10;8.32;;;;;;;;;;4949324;29;20107;-61
2020/12/26 10:46:13;;;;;;;9.60;5.50;;;;;;;;;;4948938;29;20082;-60
2020/12/26 10:48:39;;;;;;;12.57;8.13;;;;;;;;;;4945878;29;20091;-60
2020/12/26 10:51:06;;;;;;;11.43;6.72;;;;;;;;;;4948442;29;21267;-61
2020/12/26 10:53:32;;;;;;;16.13;8.93;;;;;;;;;;4945469;29;20051;-60
2020/12/26 10:55:58;;;;;;;11.15;7.55;;;;;;;;;;4946803;29;20059;-60
2020/12/26 10:58:23;;;;;;;14.25;8.65;;;;;;;;;;4947149;28;20043;-61
2020/12/26 11:00:49;;;;;;;12.32;7.90;;;;;;;;;;4946661;29;20089;-60
2020/12/26 11:03:15;;;;;;;11.25;6.50;;;;;;;;;;4945676;29;20047;-58
2020/12/26 11:05:41;;;;;;;11.60;7.97;;;;;;;;;;4946718;29;20106;-61
2020/12/26 11:08:07;;;;;;;9.93;5.57;;;;;;;;;;4949043;29;20043;-60
2020/12/26 11:10:33;;;;;;;11.65;7.63;;;;;;;;;;4948124;29;20067;-60
2020/12/26 11:12:58;;;;;;;8.05;5.15;;;;;;;;;;4947748;29;20046;-60
2020/12/26 11:15:24;;;;;;;11.07;6.85;;;;;;;;;;4929132;29;20040;-60
2020/12/26 11:17:50;;;;;;;7.75;5.13;;;;;;;;;;4946641;29;20035;-61
2020/12/26 11:20:16;;;;;;;11.27;5.07;;;;;;;;;;4946128;29;20051;-59
2020/12/26 11:22:42;;;;;;;11.60;7.63;;;;;;;;;;4946400;28;20150;-61
2020/12/26 11:25:08;;;;;;;7.65;4.75;;;;;;;;;;4946828;29;20039;-60
2020/12/26 11:27:34;;;;;;;10.55;5.15;;;;;;;;;;4945420;28;20040;-60
2020/12/26 11:30:00;;;;;;;7.05;4.28;;;;;;;;;;4948306;29;20039;-60
2020/12/26 11:32:26;;;;;;;7.90;5.10;;;;;;;;;;4945445;29;20043;-60
2020/12/26 11:34:52;;;;;;;8.88;6.03;;;;;;;;;;4946960;29;20319;-61
2020/12/26 11:37:18;;;;;;;9.80;6.03;;;;;;;;;;4949044;29;20054;-61
2020/12/26 11:39:44;;;;;;;12.02;6.18;;;;;;;;;;4949086;29;20042;-60
2020/12/26 11:42:09;;;;;;;10.52;6.55;;;;;;;;;;4949099;29;20046;-60
2020/12/26 11:44:35;;;;;;;11.18;6.25;;;;;;;;;;4949807;29;20057;-60
2020/12/26 11:47:01;;;;;;;8.18;5.30;;;;;;;;;;4948983;29;20083;-60
2020/12/26 11:49:27;;;;;;;10.48;6.88;;;;;;;;;;4947282;29;20035;-61
2020/12/26 11:51:54;;;;;;;8.30;4.50;;;;;;;;;;4947880;29;20047;-61
2020/12/26 11:54:21;;;;;;;9.57;5.93;;;;;;;;;;4945868;29;20035;-61
2020/12/26 11:56:48;;;;;;;10.00;5.80;;;;;;;;;;4946265;28;20274;-60
2020/12/26 11:59:13;;;;;;;9.13;5.18;;;;;;;;;;4948593;29;20043;-61
2020/12/26 12:01:39;;;;;;;6.95;4.40;;;;;;;;;;4945485;29;20723;-60
2020/12/26 12:04:05;;;;;;;10.95;6.45;;;;;;;;;;4947077;29;20055;-60
2020/12/26 12:06:31;;;;;;;7.28;4.72;;;;;;;;;;4946662;29;20116;-60
2020/12/26 12:08:58;;;;;;;9.95;6.40;;;;;;;;;;4947556;29;20051;-60
2020/12/26 12:11:23;;;;;;;9.10;5.75;;;;;;;;;;4946164;29;20039;-60
2020/12/26 12:13:49;;;;;;;7.90;5.30;;;;;;;;;;4947125;29;20054;-60
2020/12/26 12:16:15;;;;;;;9.20;4.30;;;;;;;;;;4945922;29;20055;-62
2020/12/26 12:18:43;;;;;;;11.15;6.35;;;;;;;;;;4945320;29;20044;-60
2020/12/26 12:21:08;;;;;;;11.35;7.43;;;;;;;;;;4946244;29;20046;-60
2020/12/26 12:23:34;;;;;;;10.57;7.43;;;;;;;;;;4946023;29;20056;-60
2020/12/26 12:26:00;;;;;;;9.18;6.32;;;;;;;;;;4944772;29;20035;-60
2020/12/26 12:28:26;;;;;;;9.38;5.97;;;;;;;;;;4946387;29;20050;-61
2020/12/26 12:30:52;;;;;;;8.13;5.03;;;;;;;;;;4945465;29;20055;-59
2020/12/26 12:33:18;;;;;;;12.60;6.22;;;;;;;;;;4945096;29;20063;-60
2020/12/26 12:35:43;;;;;;;8.68;4.63;;;;;;;;;;4946363;29;20039;-60
2020/12/26 12:38:09;;;;;;;12.27;8.60;;;;;;;;;;4943966;28;20040;-59
2020/12/26 12:40:35;;;;;;;12.10;7.70;;;;;;;;;;4944099;28;20596;-59
2020/12/26 12:43:01;;;;;;;8.25;5.47;;;;;;;;;;4945224;29;20833;-61
2020/12/26 12:45:28;;;;;;;11.50;7.05;;;;;;;;;;4944376;28;20571;-60
2020/12/26 12:47:54;;;;;;;8.45;5.53;;;;;;;;;;4945813;29;20532;-59
2020/12/26 12:50:20;;;;;;;10.90;5.28;;;;;;;;;;4944716;28;20039;-60
2020/12/26 12:52:45;;;;;;;11.15;7.03;;;;;;;;;;4946026;29;20061;-60
2020/12/26 12:55:11;;;;;;;9.25;5.30;;;;;;;;;;4945234;28;20040;-61
2020/12/26 12:57:38;;;;;;;13.68;9.27;;;;;;;;;;4943419;29;20039;-60
2020/12/26 13:00:04;;;;;;;11.98;7.38;;;;;;;;;;4944176;29;20044;-60
2020/12/26 13:02:29;;;;;;;14.38;9.50;;;;;;;;;;4931084;29;20055;-60
2020/12/26 13:04:56;;;;;;;17.05;10.23;;;;;;;;;;4945064;29;20146;-61
2020/12/26 13:07:22;;;;;;;14.23;9.00;;;;;;;;;;4944297;29;20117;-61
2020/12/26 13:09:48;;;;;;;14.35;8.35;;;;;;;;;;4945491;28;20047;-61
2020/12/26 13:12:14;;;;;;;15.27;10.55;;;;;;;;;;4944100;29;20289;-61
2020/12/26 13:14:40;;;;;;;15.00;10.07;;;;;;;;;;4944655;28;20047;-61
2020/12/26 13:17:06;;;;;;;15.55;9.27;;;;;;;;;;4944820;29;20142;-61
2020/12/26 13:19:32;;;;;;;12.52;6.95;;;;;;;;;;4944207;28;20038;-61
2020/12/26 13:22:00;;;;;;;12.23;7.20;;;;;;;;;;4945343;29;20069;-60
2020/12/26 13:24:26;;;;;;;9.23;5.97;;;;;;;;;;4944392;28;20469;-60
2020/12/26 13:26:52;;;;;;;17.00;9.95;;;;;;;;;;4944240;29;20050;-60
2020/12/26 13:29:18;;;;;;;15.73;9.18;;;;;;;;;;4943935;28;20043;-61
2020/12/26 13:31:44;;;;;;;14.55;9.27;;;;;;;;;;4946608;29;20048;-61
2020/12/26 13:34:10;;;;;;;13.38;7.60;;;;;;;;;;4944183;29;20068;-61
2020/12/26 13:36:36;;;;;;;16.52;9.27;;;;;;;;;;4943150;28;20243;-61
2020/12/26 13:39:03;;;;;;;12.88;8.40;;;;;;;;;;4945524;29;20778;-60
2020/12/26 13:41:29;;;;;;;16.08;10.23;;;;;;;;;;4945027;29;20039;-60
2020/12/26 13:43:55;;;;;;;15.63;9.65;;;;;;;;;;4942378;29;20062;-62
2020/12/26 13:46:21;;;;;;;12.55;7.43;;;;;;;;;;4943298;29;20039;-62
2020/12/26 13:48:47;;;;;;;11.68;6.75;;;;;;;;;;4944274;29;20031;-61
2020/12/26 13:51:13;;;;;;;13.60;8.20;;;;;;;;;;4942505;28;20035;-61
2020/12/26 13:53:39;;;;;;;12.52;7.45;;;;;;;;;;4943597;29;20035;-60
2020/12/26 13:56:05;;;;;;;13.93;8.48;;;;;;;;;;4943098;29;20058;-60
2020/12/26 13:58:34;;;;;;;12.00;7.90;;;;;;;;;;4943143;29;20070;-61
2020/12/26 14:01:00;;;;;;;16.70;10.98;;;;;;;;;;4945028;29;20047;-60
2020/12/26 14:03:26;;;;;;;15.02;8.80;;;;;;;;;;4944644;29;20058;-61
2020/12/26 14:05:51;;;;;;;12.05;6.78;;;;;;;;;;4945980;29;20135;-60
2020/12/26 14:08:17;;;;;;;13.73;6.72;;;;;;;;;;4943682;29;20042;-61
2020/12/26 14:10:43;;;;;;;20.23;12.82;;;;;;;;;;4946025;29;20128;-61
2020/12/26 14:13:09;;;;;;;18.35;11.82;;;;;;;;;;4944295;29;20039;-60
2020/12/26 14:15:35;;;;;;;18.50;10.85;;;;;;;;;;4947014;28;20040;-60
2020/12/26 14:18:01;;;;;;;18.02;11.05;;;;;;;;;;4948306;29;20053;-61
2020/12/26 14:20:27;;;;;;;20.38;12.27;;;;;;;;;;4942675;29;20127;-62
2020/12/26 14:22:52;;;;;;;12.32;7.57;;;;;;;;;;4943970;29;20052;-61
2020/12/26 14:25:18;;;;;;;21.42;12.68;;;;;;;;;;4944357;28;20036;-62
2020/12/26 14:27:44;;;;;;;10.90;5.97;;;;;;;;;;4943808;29;20046;-62
2020/12/26 14:30:10;;;;;;;13.25;7.60;;;;;;;;;;4941066;28;20074;-62
2020/12/26 14:32:36;;;;;;;12.55;7.07;;;;;;;;;;4943880;29;20074;-60
2020/12/26 14:35:02;;;;;;;11.07;7.18;;;;;;;;;;4942945;28;20043;-62